sensor_id;sensor_type;location;lat;lon;timestamp;P1;durP1;ratioP1;P2;durP2;ratioP2
70705;SDS011;59320;52.316;10.870;2024-01-06T00:00:38;21.67;;;12.73;;
70705;SDS011;59320;52.316;10.870;2024-01-06T00:03:05;21.52;;;12.55;;
70705;SDS011;59320;52.316;10.870;2024-01-06T00:05:32;23.30;;;12.15;;
70705;SDS011;59320;52.316;10.870;2024-01-06T00:07:59;23.75;;;11.82;;
70705;SDS011;59320;52.316;10.870;2024-01-06T00:10:28;21.38;;;11.95;;
70705;SDS011;59320;52.316;10.870;2024-01-06T00:12:55;22.77;;;12.65;;
70705;SDS011;59320;52.316;10.870;2024-01-06T00:15:22;19.50;;;11.07;;
70705;SDS011;59320;52.316;10.870;2024-01-06T00:17:49;20.02;;;11.60;;
70705;SDS011;59320;52.316;10.870;2024-01-06T00:20:17;19.23;;;11.27;;
70705;SDS011;59320;52.316;10.870;2024-01-06T00:22:44;20.92;;;11.02;;
70705;SDS011;59320;52.316;10.870;2024-01-06T00:25:11;20.95;;;11.85;;
70705;SDS011;59320;52.316;10.870;2024-01-06T00:27:40;20.20;;;11.90;;
70705;SDS011;59320;52.316;10.870;2024-01-06T00:30:07;20.75;;;12.27;;
70705;SDS011;59320;52.316;10.870;2024-01-06T00:32:35;21.65;;;12.38;;
70705;SDS011;59320;52.316;10.870;2024-01-06T00:35:02;22.10;;;13.10;;
70705;SDS011;59320;52.316;10.870;2024-01-06T00:37:30;24.58;;;13.60;;
70705;SDS011;59320;52.316;10.870;2024-01-06T00:39:57;22.85;;;12.45;;
70705;SDS011;59320;52.316;10.870;2024-01-06T00:42:24;22.27;;;11.63;;
70705;SDS011;59320;52.316;10.870;2024-01-06T00:44:53;23.80;;;12.70;;
70705;SDS011;59320;52.316;10.870;2024-01-06T00:47:20;22.38;;;11.77;;
70705;SDS011;59320;52.316;10.870;2024-01-06T00:49:49;20.50;;;12.52;;
70705;SDS011;59320;52.316;10.870;2024-01-06T00:52:16;24.95;;;13.52;;
70705;SDS011;59320;52.316;10.870;2024-01-06T00:54:44;22.33;;;12.38;;
70705;SDS011;59320;52.316;10.870;2024-01-06T00:57:11;23.05;;;12.55;;
70705;SDS011;59320;52.316;10.870;2024-01-06T00:59:38;23.30;;;12.52;;
70705;SDS011;59320;52.316;10.870;2024-01-06T01:02:07;20.77;;;11.63;;
70705;SDS011;59320;52.316;10.870;2024-01-06T01:04:34;20.20;;;10.60;;
70705;SDS011;59320;52.316;10.870;2024-01-06T01:07:01;21.52;;;12.40;;
70705;SDS011;59320;52.316;10.870;2024-01-06T01:09:28;24.35;;;11.63;;
70705;SDS011;59320;52.316;10.870;2024-01-06T01:11:56;22.75;;;12.05;;
70705;SDS011;59320;52.316;10.870;2024-01-06T01:14:23;21.42;;;11.75;;
70705;SDS011;59320;52.316;10.870;2024-01-06T01:16:50;23.67;;;11.82;;
70705;SDS011;59320;52.316;10.870;2024-01-06T01:19:19;18.45;;;10.55;;
70705;SDS011;59320;52.316;10.870;2024-01-06T01:21:46;20.83;;;11.45;;
70705;SDS011;59320;52.316;10.870;2024-01-06T01:24:13;20.05;;;11.00;;
70705;SDS011;59320;52.316;10.870;2024-01-06T01:26:40;19.95;;;10.88;;
70705;SDS011;59320;52.316;10.870;2024-01-06T01:29:07;20.88;;;11.93;;
70705;SDS011;59320;52.316;10.870;2024-01-06T01:31:34;22.00;;;11.82;;
70705;SDS011;59320;52.316;10.870;2024-01-06T01:34:02;22.23;;;11.85;;
70705;SDS011;59320;52.316;10.870;2024-01-06T01:36:30;23.15;;;12.07;;
70705;SDS011;59320;52.316;10.870;2024-01-06T01:38:58;24.85;;;12.38;;
70705;SDS011;59320;52.316;10.870;2024-01-06T01:41:25;21.83;;;11.45;;
70705;SDS011;59320;52.316;10.870;2024-01-06T01:43:52;20.00;;;10.68;;
70705;SDS011;59320;52.316;10.870;2024-01-06T01:46:24;22.95;;;12.25;;
70705;SDS011;59320;52.316;10.870;2024-01-06T01:48:52;29.10;;;13.27;;
70705;SDS011;59320;52.316;10.870;2024-01-06T01:51:20;24.60;;;12.85;;
70705;SDS011;59320;52.316;10.870;2024-01-06T01:53:49;30.20;;;15.18;;
70705;SDS011;59320;52.316;10.870;2024-01-06T01:56:17;36.97;;;15.65;;
70705;SDS011;59320;52.316;10.870;2024-01-06T01:58:45;33.50;;;14.82;;
70705;SDS011;59320;52.316;10.870;2024-01-06T02:01:13;32.33;;;15.63;;
70705;SDS011;59320;52.316;10.870;2024-01-06T02:03:41;31.55;;;14.95;;
70705;SDS011;59320;52.316;10.870;2024-01-06T02:06:08;43.20;;;17.30;;
70705;SDS011;59320;52.316;10.870;2024-01-06T02:08:36;43.58;;;16.92;;
70705;SDS011;59320;52.316;10.870;2024-01-06T02:11:05;37.88;;;16.45;;
70705;SDS011;59320;52.316;10.870;2024-01-06T02:13:32;56.90;;;17.00;;
70705;SDS011;59320;52.316;10.870;2024-01-06T02:16:00;41.05;;;15.98;;
70705;SDS011;59320;52.316;10.870;2024-01-06T02:18:28;50.40;;;16.52;;
70705;SDS011;59320;52.316;10.870;2024-01-06T02:20:56;40.42;;;15.07;;
70705;SDS011;59320;52.316;10.870;2024-01-06T02:23:27;35.30;;;14.98;;
70705;SDS011;59320;52.316;10.870;2024-01-06T02:25:55;49.55;;;15.25;;
70705;SDS011;59320;52.316;10.870;2024-01-06T02:28:22;68.68;;;14.25;;
70705;SDS011;59320;52.316;10.870;2024-01-06T02:30:49;34.47;;;13.02;;
70705;SDS011;59320;52.316;10.870;2024-01-06T02:33:17;34.33;;;12.55;;
70705;SDS011;59320;52.316;10.870;2024-01-06T02:35:44;29.17;;;12.15;;
70705;SDS011;59320;52.316;10.870;2024-01-06T02:38:12;30.55;;;13.60;;
70705;SDS011;59320;52.316;10.870;2024-01-06T02:40:40;43.13;;;13.18;;
70705;SDS011;59320;52.316;10.870;2024-01-06T02:43:08;36.72;;;12.98;;
70705;SDS011;59320;52.316;10.870;2024-01-06T02:45:35;31.35;;;13.18;;
70705;SDS011;59320;52.316;10.870;2024-01-06T02:48:03;33.50;;;13.85;;
70705;SDS011;59320;52.316;10.870;2024-01-06T02:50:30;32.67;;;13.77;;
70705;SDS011;59320;52.316;10.870;2024-01-06T02:52:57;36.75;;;13.68;;
70705;SDS011;59320;52.316;10.870;2024-01-06T02:55:25;34.85;;;13.57;;
70705;SDS011;59320;52.316;10.870;2024-01-06T02:57:53;28.65;;;13.68;;
70705;SDS011;59320;52.316;10.870;2024-01-06T03:00:20;24.88;;;12.93;;
70705;SDS011;59320;52.316;10.870;2024-01-06T03:02:48;26.80;;;13.15;;
70705;SDS011;59320;52.316;10.870;2024-01-06T03:05:15;31.58;;;14.75;;
70705;SDS011;59320;52.316;10.870;2024-01-06T03:07:42;25.67;;;11.82;;
70705;SDS011;59320;52.316;10.870;2024-01-06T03:10:09;27.23;;;12.68;;
70705;SDS011;59320;52.316;10.870;2024-01-06T03:12:37;32.00;;;12.77;;
70705;SDS011;59320;52.316;10.870;2024-01-06T03:15:06;24.45;;;12.00;;
70705;SDS011;59320;52.316;10.870;2024-01-06T03:17:34;28.95;;;13.25;;
70705;SDS011;59320;52.316;10.870;2024-01-06T03:20:01;28.77;;;12.70;;
70705;SDS011;59320;52.316;10.870;2024-01-06T03:22:29;28.70;;;13.27;;
70705;SDS011;59320;52.316;10.870;2024-01-06T03:24:56;31.50;;;12.50;;
70705;SDS011;59320;52.316;10.870;2024-01-06T03:27:23;26.25;;;12.60;;
70705;SDS011;59320;52.316;10.870;2024-01-06T03:29:50;27.85;;;12.80;;
70705;SDS011;59320;52.316;10.870;2024-01-06T03:32:19;24.70;;;13.05;;
70705;SDS011;59320;52.316;10.870;2024-01-06T03:34:46;34.55;;;13.63;;
70705;SDS011;59320;52.316;10.870;2024-01-06T03:37:13;40.50;;;13.20;;
70705;SDS011;59320;52.316;10.870;2024-01-06T03:39:41;39.85;;;12.85;;
70705;SDS011;59320;52.316;10.870;2024-01-06T03:42:08;38.78;;;14.23;;
70705;SDS011;59320;52.316;10.870;2024-01-06T03:44:35;31.25;;;12.38;;
70705;SDS011;59320;52.316;10.870;2024-01-06T03:47:02;41.05;;;13.52;;
70705;SDS011;59320;52.316;10.870;2024-01-06T03:49:31;34.78;;;14.30;;
70705;SDS011;59320;52.316;10.870;2024-01-06T03:51:58;39.30;;;14.50;;
70705;SDS011;59320;52.316;10.870;2024-01-06T03:54:25;51.88;;;13.85;;
70705;SDS011;59320;52.316;10.870;2024-01-06T03:56:53;37.50;;;14.75;;
70705;SDS011;59320;52.316;10.870;2024-01-06T03:59:20;50.33;;;14.48;;
70705;SDS011;59320;52.316;10.870;2024-01-06T04:01:47;41.63;;;14.95;;
70705;SDS011;59320;52.316;10.870;2024-01-06T04:04:14;45.05;;;14.13;;
70705;SDS011;59320;52.316;10.870;2024-01-06T04:06:43;47.75;;;15.32;;
70705;SDS011;59320;52.316;10.870;2024-01-06T04:09:10;37.95;;;14.13;;
70705;SDS011;59320;52.316;10.870;2024-01-06T04:11:37;37.38;;;13.98;;
70705;SDS011;59320;52.316;10.870;2024-01-06T04:14:04;37.88;;;14.30;;
70705;SDS011;59320;52.316;10.870;2024-01-06T04:16:31;41.70;;;14.25;;
70705;SDS011;59320;52.316;10.870;2024-01-06T04:18:58;33.85;;;14.30;;
70705;SDS011;59320;52.316;10.870;2024-01-06T04:21:25;28.88;;;13.02;;
70705;SDS011;59320;52.316;10.870;2024-01-06T04:23:54;34.53;;;14.70;;
70705;SDS011;59320;52.316;10.870;2024-01-06T04:26:22;38.50;;;13.85;;
70705;SDS011;59320;52.316;10.870;2024-01-06T04:28:49;25.85;;;13.18;;
70705;SDS011;59320;52.316;10.870;2024-01-06T04:31:16;31.02;;;14.10;;
70705;SDS011;59320;52.316;10.870;2024-01-06T04:33:43;28.95;;;14.40;;
70705;SDS011;59320;52.316;10.870;2024-01-06T04:36:11;41.13;;;15.25;;
70705;SDS011;59320;52.316;10.870;2024-01-06T04:38:38;29.98;;;14.02;;
70705;SDS011;59320;52.316;10.870;2024-01-06T04:41:07;30.10;;;14.68;;
70705;SDS011;59320;52.316;10.870;2024-01-06T04:43:34;34.83;;;15.13;;
70705;SDS011;59320;52.316;10.870;2024-01-06T04:46:01;32.08;;;14.82;;
70705;SDS011;59320;52.316;10.870;2024-01-06T04:48:28;33.47;;;13.68;;
70705;SDS011;59320;52.316;10.870;2024-01-06T04:50:55;31.77;;;14.52;;
70705;SDS011;59320;52.316;10.870;2024-01-06T04:53:23;31.00;;;14.68;;
70705;SDS011;59320;52.316;10.870;2024-01-06T04:55:50;35.28;;;13.80;;
70705;SDS011;59320;52.316;10.870;2024-01-06T04:58:18;31.38;;;13.77;;
70705;SDS011;59320;52.316;10.870;2024-01-06T05:00:46;30.15;;;14.43;;
70705;SDS011;59320;52.316;10.870;2024-01-06T05:03:13;35.97;;;15.25;;
70705;SDS011;59320;52.316;10.870;2024-01-06T05:05:40;44.08;;;16.05;;
70705;SDS011;59320;52.316;10.870;2024-01-06T05:08:07;30.08;;;14.68;;
70705;SDS011;59320;52.316;10.870;2024-01-06T05:10:35;29.77;;;13.45;;
70705;SDS011;59320;52.316;10.870;2024-01-06T05:13:02;29.42;;;13.88;;
70705;SDS011;59320;52.316;10.870;2024-01-06T05:15:31;30.25;;;15.63;;
70705;SDS011;59320;52.316;10.870;2024-01-06T05:17:58;37.40;;;15.23;;
70705;SDS011;59320;52.316;10.870;2024-01-06T05:20:25;32.08;;;15.20;;
70705;SDS011;59320;52.316;10.870;2024-01-06T05:22:52;33.58;;;14.27;;
70705;SDS011;59320;52.316;10.870;2024-01-06T05:25:19;31.88;;;15.57;;
70705;SDS011;59320;52.316;10.870;2024-01-06T05:27:46;35.20;;;15.10;;
70705;SDS011;59320;52.316;10.870;2024-01-06T05:30:14;34.25;;;16.90;;
70705;SDS011;59320;52.316;10.870;2024-01-06T05:32:42;50.67;;;17.33;;
70705;SDS011;59320;52.316;10.870;2024-01-06T05:35:10;54.42;;;18.05;;
70705;SDS011;59320;52.316;10.870;2024-01-06T05:37:37;47.10;;;16.13;;
70705;SDS011;59320;52.316;10.870;2024-01-06T05:40:05;40.33;;;16.00;;
70705;SDS011;59320;52.316;10.870;2024-01-06T05:42:33;45.58;;;17.92;;
70705;SDS011;59320;52.316;10.870;2024-01-06T05:45:01;40.65;;;15.27;;
70705;SDS011;59320;52.316;10.870;2024-01-06T05:47:28;46.28;;;17.10;;
70705;SDS011;59320;52.316;10.870;2024-01-06T05:49:58;43.65;;;16.88;;
70705;SDS011;59320;52.316;10.870;2024-01-06T05:52:25;42.25;;;17.13;;
70705;SDS011;59320;52.316;10.870;2024-01-06T05:54:52;44.38;;;17.38;;
70705;SDS011;59320;52.316;10.870;2024-01-06T05:57:19;50.72;;;17.63;;
70705;SDS011;59320;52.316;10.870;2024-01-06T05:59:47;56.53;;;17.50;;
70705;SDS011;59320;52.316;10.870;2024-01-06T06:02:14;38.85;;;16.58;;
70705;SDS011;59320;52.316;10.870;2024-01-06T06:04:41;51.10;;;18.35;;
70705;SDS011;59320;52.316;10.870;2024-01-06T06:07:10;49.67;;;18.58;;
70705;SDS011;59320;52.316;10.870;2024-01-06T06:09:37;45.45;;;17.73;;
70705;SDS011;59320;52.316;10.870;2024-01-06T06:12:05;43.53;;;15.82;;
70705;SDS011;59320;52.316;10.870;2024-01-06T06:14:33;45.95;;;17.77;;
70705;SDS011;59320;52.316;10.870;2024-01-06T06:17:00;52.15;;;19.02;;
70705;SDS011;59320;52.316;10.870;2024-01-06T06:19:27;41.03;;;16.73;;
70705;SDS011;59320;52.316;10.870;2024-01-06T06:21:55;44.53;;;17.05;;
70705;SDS011;59320;52.316;10.870;2024-01-06T06:24:24;47.58;;;16.95;;
70705;SDS011;59320;52.316;10.870;2024-01-06T06:26:51;52.92;;;19.20;;
70705;SDS011;59320;52.316;10.870;2024-01-06T06:29:18;47.72;;;19.48;;
70705;SDS011;59320;52.316;10.870;2024-01-06T06:31:46;44.65;;;18.25;;
70705;SDS011;59320;52.316;10.870;2024-01-06T06:34:13;47.88;;;18.95;;
70705;SDS011;59320;52.316;10.870;2024-01-06T06:36:41;44.40;;;18.27;;
70705;SDS011;59320;52.316;10.870;2024-01-06T06:39:08;46.55;;;16.80;;
70705;SDS011;59320;52.316;10.870;2024-01-06T06:41:37;43.83;;;17.33;;
70705;SDS011;59320;52.316;10.870;2024-01-06T06:44:04;47.72;;;17.67;;
70705;SDS011;59320;52.316;10.870;2024-01-06T06:46:31;42.53;;;16.35;;
70705;SDS011;59320;52.316;10.870;2024-01-06T06:48:59;34.90;;;14.98;;
70705;SDS011;59320;52.316;10.870;2024-01-06T06:51:26;34.08;;;14.35;;
70705;SDS011;59320;52.316;10.870;2024-01-06T06:53:54;38.95;;;15.57;;
70705;SDS011;59320;52.316;10.870;2024-01-06T06:56:21;31.25;;;14.00;;
70705;SDS011;59320;52.316;10.870;2024-01-06T06:58:50;36.72;;;14.90;;
70705;SDS011;59320;52.316;10.870;2024-01-06T07:01:17;35.35;;;15.10;;
70705;SDS011;59320;52.316;10.870;2024-01-06T07:03:45;29.38;;;13.52;;
70705;SDS011;59320;52.316;10.870;2024-01-06T07:06:12;27.70;;;13.25;;
70705;SDS011;59320;52.316;10.870;2024-01-06T07:08:40;33.17;;;13.30;;
70705;SDS011;59320;52.316;10.870;2024-01-06T07:11:07;30.48;;;13.57;;
70705;SDS011;59320;52.316;10.870;2024-01-06T07:13:36;28.10;;;13.25;;
70705;SDS011;59320;52.316;10.870;2024-01-06T07:16:05;26.08;;;12.88;;
70705;SDS011;59320;52.316;10.870;2024-01-06T07:18:33;27.10;;;12.43;;
70705;SDS011;59320;52.316;10.870;2024-01-06T07:21:00;26.70;;;11.98;;
70705;SDS011;59320;52.316;10.870;2024-01-06T07:23:27;28.75;;;13.30;;
70705;SDS011;59320;52.316;10.870;2024-01-06T07:25:55;29.35;;;12.88;;
70705;SDS011;59320;52.316;10.870;2024-01-06T07:28:23;31.15;;;13.10;;
70705;SDS011;59320;52.316;10.870;2024-01-06T07:30:50;26.60;;;12.10;;
70705;SDS011;59320;52.316;10.870;2024-01-06T07:33:18;29.90;;;13.25;;
70705;SDS011;59320;52.316;10.870;2024-01-06T07:35:46;31.52;;;13.50;;
70705;SDS011;59320;52.316;10.870;2024-01-06T07:38:13;27.88;;;13.35;;
70705;SDS011;59320;52.316;10.870;2024-01-06T07:40:40;32.13;;;13.35;;
70705;SDS011;59320;52.316;10.870;2024-01-06T07:43:09;34.78;;;13.90;;
70705;SDS011;59320;52.316;10.870;2024-01-06T07:45:36;31.45;;;12.85;;
70705;SDS011;59320;52.316;10.870;2024-01-06T07:48:04;31.20;;;14.55;;
70705;SDS011;59320;52.316;10.870;2024-01-06T07:50:33;33.08;;;14.35;;
70705;SDS011;59320;52.316;10.870;2024-01-06T07:53:00;32.22;;;14.90;;
70705;SDS011;59320;52.316;10.870;2024-01-06T07:55:28;36.63;;;14.85;;
70705;SDS011;59320;52.316;10.870;2024-01-06T07:57:55;33.35;;;15.00;;
70705;SDS011;59320;52.316;10.870;2024-01-06T08:00:22;31.92;;;14.60;;
70705;SDS011;59320;52.316;10.870;2024-01-06T08:02:49;36.33;;;14.48;;
70705;SDS011;59320;52.316;10.870;2024-01-06T08:05:16;32.70;;;13.95;;
70705;SDS011;59320;52.316;10.870;2024-01-06T08:07:45;37.33;;;14.82;;
70705;SDS011;59320;52.316;10.870;2024-01-06T08:10:12;36.47;;;14.55;;
70705;SDS011;59320;52.316;10.870;2024-01-06T08:12:40;40.80;;;16.15;;
70705;SDS011;59320;52.316;10.870;2024-01-06T08:15:07;35.63;;;14.85;;
70705;SDS011;59320;52.316;10.870;2024-01-06T08:17:34;33.10;;;14.80;;
70705;SDS011;59320;52.316;10.870;2024-01-06T08:20:02;34.83;;;16.00;;
70705;SDS011;59320;52.316;10.870;2024-01-06T08:22:31;40.83;;;17.38;;
70705;SDS011;59320;52.316;10.870;2024-01-06T08:25:00;32.63;;;14.90;;
70705;SDS011;59320;52.316;10.870;2024-01-06T08:27:27;38.67;;;17.65;;
70705;SDS011;59320;52.316;10.870;2024-01-06T08:29:55;43.15;;;17.50;;
70705;SDS011;59320;52.316;10.870;2024-01-06T08:32:22;48.00;;;17.85;;
70705;SDS011;59320;52.316;10.870;2024-01-06T08:34:49;45.85;;;16.42;;
70705;SDS011;59320;52.316;10.870;2024-01-06T08:37:17;42.60;;;16.38;;
70705;SDS011;59320;52.316;10.870;2024-01-06T08:39:44;41.55;;;17.50;;
70705;SDS011;59320;52.316;10.870;2024-01-06T08:42:13;47.55;;;18.75;;
70705;SDS011;59320;52.316;10.870;2024-01-06T08:44:40;49.13;;;18.65;;
70705;SDS011;59320;52.316;10.870;2024-01-06T08:47:08;46.63;;;18.13;;
70705;SDS011;59320;52.316;10.870;2024-01-06T08:49:36;45.20;;;18.02;;
70705;SDS011;59320;52.316;10.870;2024-01-06T08:52:03;46.80;;;18.00;;
70705;SDS011;59320;52.316;10.870;2024-01-06T08:54:31;54.05;;;18.02;;
70705;SDS011;59320;52.316;10.870;2024-01-06T08:56:58;48.85;;;19.10;;
70705;SDS011;59320;52.316;10.870;2024-01-06T08:59:27;60.45;;;20.05;;
70705;SDS011;59320;52.316;10.870;2024-01-06T09:01:54;48.03;;;18.48;;
70705;SDS011;59320;52.316;10.870;2024-01-06T09:04:22;46.50;;;17.88;;
70705;SDS011;59320;52.316;10.870;2024-01-06T09:06:49;40.55;;;18.27;;
70705;SDS011;59320;52.316;10.870;2024-01-06T09:09:17;50.05;;;18.80;;
70705;SDS011;59320;52.316;10.870;2024-01-06T09:11:44;47.15;;;18.45;;
70705;SDS011;59320;52.316;10.870;2024-01-06T09:14:11;44.65;;;17.90;;
70705;SDS011;59320;52.316;10.870;2024-01-06T09:16:40;39.33;;;17.08;;
70705;SDS011;59320;52.316;10.870;2024-01-06T09:19:07;39.97;;;16.55;;
70705;SDS011;59320;52.316;10.870;2024-01-06T09:21:34;39.00;;;17.17;;
70705;SDS011;59320;52.316;10.870;2024-01-06T09:24:02;37.33;;;16.17;;
70705;SDS011;59320;52.316;10.870;2024-01-06T09:26:31;40.70;;;17.65;;
70705;SDS011;59320;52.316;10.870;2024-01-06T09:28:59;37.60;;;17.55;;
70705;SDS011;59320;52.316;10.870;2024-01-06T09:31:26;44.33;;;17.30;;
70705;SDS011;59320;52.316;10.870;2024-01-06T09:33:55;44.03;;;17.73;;
70705;SDS011;59320;52.316;10.870;2024-01-06T09:36:22;42.65;;;17.10;;
70705;SDS011;59320;52.316;10.870;2024-01-06T09:38:49;37.38;;;16.90;;
70705;SDS011;59320;52.316;10.870;2024-01-06T09:41:16;37.78;;;16.98;;
70705;SDS011;59320;52.316;10.870;2024-01-06T09:43:43;40.25;;;16.77;;
70705;SDS011;59320;52.316;10.870;2024-01-06T09:46:25;36.25;;;17.02;;
70705;SDS011;59320;52.316;10.870;2024-01-06T09:48:56;41.58;;;16.63;;
70705;SDS011;59320;52.316;10.870;2024-01-06T09:51:24;45.10;;;16.75;;
70705;SDS011;59320;52.316;10.870;2024-01-06T09:53:54;40.42;;;18.55;;
70705;SDS011;59320;52.316;10.870;2024-01-06T09:56:23;45.38;;;18.20;;
70705;SDS011;59320;52.316;10.870;2024-01-06T09:58:52;43.55;;;17.27;;
70705;SDS011;59320;52.316;10.870;2024-01-06T10:01:19;56.80;;;19.25;;
70705;SDS011;59320;52.316;10.870;2024-01-06T10:03:47;43.35;;;18.13;;
70705;SDS011;59320;52.316;10.870;2024-01-06T10:06:16;46.05;;;18.80;;
70705;SDS011;59320;52.316;10.870;2024-01-06T10:08:43;49.50;;;19.58;;
70705;SDS011;59320;52.316;10.870;2024-01-06T10:11:11;56.35;;;19.73;;
70705;SDS011;59320;52.316;10.870;2024-01-06T10:13:39;58.75;;;21.40;;
70705;SDS011;59320;52.316;10.870;2024-01-06T10:16:06;58.60;;;20.30;;
70705;SDS011;59320;52.316;10.870;2024-01-06T10:18:34;57.63;;;20.13;;
70705;SDS011;59320;52.316;10.870;2024-01-06T10:21:03;66.35;;;22.23;;
70705;SDS011;59320;52.316;10.870;2024-01-06T10:23:32;54.55;;;22.02;;
70705;SDS011;59320;52.316;10.870;2024-01-06T10:26:00;57.65;;;21.17;;
70705;SDS011;59320;52.316;10.870;2024-01-06T10:28:27;60.75;;;22.90;;
70705;SDS011;59320;52.316;10.870;2024-01-06T10:30:55;53.00;;;20.10;;
70705;SDS011;59320;52.316;10.870;2024-01-06T10:33:25;54.95;;;21.05;;
70705;SDS011;59320;52.316;10.870;2024-01-06T10:35:52;49.97;;;18.55;;
70705;SDS011;59320;52.316;10.870;2024-01-06T10:38:21;44.63;;;18.73;;
70705;SDS011;59320;52.316;10.870;2024-01-06T10:43:35;55.33;;;19.33;;
70705;SDS011;59320;52.316;10.870;2024-01-06T10:46:06;49.97;;;18.30;;
70705;SDS011;59320;52.316;10.870;2024-01-06T10:48:36;43.42;;;17.40;;
70705;SDS011;59320;52.316;10.870;2024-01-06T10:51:08;50.45;;;19.02;;
70705;SDS011;59320;52.316;10.870;2024-01-06T10:53:35;51.13;;;16.92;;
70705;SDS011;59320;52.316;10.870;2024-01-06T10:56:05;60.72;;;17.95;;
70705;SDS011;59320;52.316;10.870;2024-01-06T10:58:35;51.20;;;18.27;;
70705;SDS011;59320;52.316;10.870;2024-01-06T11:01:03;51.40;;;20.58;;
70705;SDS011;59320;52.316;10.870;2024-01-06T11:03:31;48.05;;;19.08;;
70705;SDS011;59320;52.316;10.870;2024-01-06T11:05:59;46.55;;;18.85;;
70705;SDS011;59320;52.316;10.870;2024-01-06T11:08:27;44.95;;;18.30;;
70705;SDS011;59320;52.316;10.870;2024-01-06T11:10:57;56.53;;;18.63;;
70705;SDS011;59320;52.316;10.870;2024-01-06T11:13:24;44.35;;;18.40;;
70705;SDS011;59320;52.316;10.870;2024-01-06T11:15:53;43.13;;;18.33;;
70705;SDS011;59320;52.316;10.870;2024-01-06T11:18:33;40.38;;;17.05;;
70705;SDS011;59320;52.316;10.870;2024-01-06T11:21:14;36.55;;;15.38;;
70705;SDS011;59320;52.316;10.870;2024-01-06T11:26:43;35.50;;;16.05;;
70705;SDS011;59320;52.316;10.870;2024-01-06T11:29:11;33.75;;;16.05;;
70705;SDS011;59320;52.316;10.870;2024-01-06T11:31:40;38.03;;;16.48;;
70705;SDS011;59320;52.316;10.870;2024-01-06T11:34:12;41.63;;;16.88;;
70705;SDS011;59320;52.316;10.870;2024-01-06T11:36:42;37.67;;;17.48;;
70705;SDS011;59320;52.316;10.870;2024-01-06T11:42:02;40.03;;;16.90;;
70705;SDS011;59320;52.316;10.870;2024-01-06T11:44:29;35.90;;;16.83;;
70705;SDS011;59320;52.316;10.870;2024-01-06T11:47:01;36.47;;;16.38;;
70705;SDS011;59320;52.316;10.870;2024-01-06T11:49:30;37.53;;;16.58;;
70705;SDS011;59320;52.316;10.870;2024-01-06T11:51:58;35.63;;;16.23;;
70705;SDS011;59320;52.316;10.870;2024-01-06T11:54:25;41.25;;;18.00;;
70705;SDS011;59320;52.316;10.870;2024-01-06T11:56:52;45.38;;;17.23;;
70705;SDS011;59320;52.316;10.870;2024-01-06T11:59:21;37.20;;;16.48;;
70705;SDS011;59320;52.316;10.870;2024-01-06T12:01:48;47.58;;;17.23;;
70705;SDS011;59320;52.316;10.870;2024-01-06T12:04:18;42.03;;;17.80;;
70705;SDS011;59320;52.316;10.870;2024-01-06T12:06:47;49.55;;;18.30;;
70705;SDS011;59320;52.316;10.870;2024-01-06T12:09:16;46.30;;;17.02;;
70705;SDS011;59320;52.316;10.870;2024-01-06T12:11:45;48.17;;;16.98;;
70705;SDS011;59320;52.316;10.870;2024-01-06T12:14:13;54.00;;;19.67;;
70705;SDS011;59320;52.316;10.870;2024-01-06T12:16:41;47.47;;;17.55;;
70705;SDS011;59320;52.316;10.870;2024-01-06T12:19:11;52.88;;;18.65;;
70705;SDS011;59320;52.316;10.870;2024-01-06T12:21:40;59.22;;;19.40;;
70705;SDS011;59320;52.316;10.870;2024-01-06T12:24:15;67.75;;;21.33;;
70705;SDS011;59320;52.316;10.870;2024-01-06T12:26:45;52.17;;;19.52;;
70705;SDS011;59320;52.316;10.870;2024-01-06T12:29:13;46.92;;;19.35;;
70705;SDS011;59320;52.316;10.870;2024-01-06T12:31:40;65.88;;;20.65;;
70705;SDS011;59320;52.316;10.870;2024-01-06T12:34:08;73.50;;;21.75;;
70705;SDS011;59320;52.316;10.870;2024-01-06T12:36:35;50.15;;;19.42;;
70705;SDS011;59320;52.316;10.870;2024-01-06T12:39:06;76.65;;;22.48;;
70705;SDS011;59320;52.316;10.870;2024-01-06T12:41:38;69.53;;;21.48;;
70705;SDS011;59320;52.316;10.870;2024-01-06T12:44:06;70.78;;;20.23;;
70705;SDS011;59320;52.316;10.870;2024-01-06T12:46:33;117.28;;;22.33;;
70705;SDS011;59320;52.316;10.870;2024-01-06T12:49:01;71.82;;;23.08;;
70705;SDS011;59320;52.316;10.870;2024-01-06T12:51:29;69.05;;;20.02;;
70705;SDS011;59320;52.316;10.870;2024-01-06T12:53:56;95.93;;;20.80;;
70705;SDS011;59320;52.316;10.870;2024-01-06T12:56:25;76.13;;;21.60;;
70705;SDS011;59320;52.316;10.870;2024-01-06T12:58:52;95.38;;;21.50;;
70705;SDS011;59320;52.316;10.870;2024-01-06T13:01:18;78.60;;;21.67;;
70705;SDS011;59320;52.316;10.870;2024-01-06T13:03:45;87.20;;;22.05;;
70705;SDS011;59320;52.316;10.870;2024-01-06T13:06:12;57.53;;;19.92;;
70705;SDS011;59320;52.316;10.870;2024-01-06T13:08:41;67.93;;;20.95;;
70705;SDS011;59320;52.316;10.870;2024-01-06T13:11:09;100.03;;;21.40;;
70705;SDS011;59320;52.316;10.870;2024-01-06T13:13:38;67.13;;;20.20;;
70705;SDS011;59320;52.316;10.870;2024-01-06T13:16:05;54.00;;;20.95;;
70705;SDS011;59320;52.316;10.870;2024-01-06T13:18:32;64.57;;;21.67;;
70705;SDS011;59320;52.316;10.870;2024-01-06T13:21:00;64.95;;;22.13;;
70705;SDS011;59320;52.316;10.870;2024-01-06T13:23:27;94.63;;;21.48;;
70705;SDS011;59320;52.316;10.870;2024-01-06T13:25:54;87.63;;;21.10;;
70705;SDS011;59320;52.316;10.870;2024-01-06T13:28:22;63.15;;;22.73;;
70705;SDS011;59320;52.316;10.870;2024-01-06T13:30:51;108.95;;;23.60;;
70705;SDS011;59320;52.316;10.870;2024-01-06T13:33:18;71.47;;;21.70;;
70705;SDS011;59320;52.316;10.870;2024-01-06T13:35:46;68.78;;;22.90;;
70705;SDS011;59320;52.316;10.870;2024-01-06T13:38:13;83.60;;;21.77;;
70705;SDS011;59320;52.316;10.870;2024-01-06T13:40:41;67.88;;;20.70;;
70705;SDS011;59320;52.316;10.870;2024-01-06T13:43:10;83.15;;;21.55;;
70705;SDS011;59320;52.316;10.870;2024-01-06T13:45:41;89.53;;;22.23;;
70705;SDS011;59320;52.316;10.870;2024-01-06T13:48:12;73.50;;;21.70;;
70705;SDS011;59320;52.316;10.870;2024-01-06T13:50:39;92.88;;;21.65;;
70705;SDS011;59320;52.316;10.870;2024-01-06T13:53:07;79.22;;;22.58;;
70705;SDS011;59320;52.316;10.870;2024-01-06T13:55:34;68.90;;;21.95;;
70705;SDS011;59320;52.316;10.870;2024-01-06T13:58:02;88.50;;;23.05;;
70705;SDS011;59320;52.316;10.870;2024-01-06T14:00:29;96.85;;;24.83;;
70705;SDS011;59320;52.316;10.870;2024-01-06T14:02:57;79.43;;;21.85;;
70705;SDS011;59320;52.316;10.870;2024-01-06T14:05:26;59.92;;;20.73;;
70705;SDS011;59320;52.316;10.870;2024-01-06T14:07:53;81.80;;;21.85;;
70705;SDS011;59320;52.316;10.870;2024-01-06T14:10:21;67.18;;;21.30;;
70705;SDS011;59320;52.316;10.870;2024-01-06T14:12:48;53.95;;;19.42;;
70705;SDS011;59320;52.316;10.870;2024-01-06T14:15:15;89.50;;;23.60;;
70705;SDS011;59320;52.316;10.870;2024-01-06T14:17:43;75.85;;;21.40;;
70705;SDS011;59320;52.316;10.870;2024-01-06T14:20:14;71.82;;;20.20;;